sensor_id;sensor_type;location;lat;lon;timestamp;pressure;altitude;pressure_sealevel;temperature;humidity
23341;BME280;12239;53.404;23.492;2022-08-01T00:00:58;99114.27;;;14.46;100.00
23341;BME280;12239;53.404;23.492;2022-08-01T00:03:26;99118.09;;;14.45;100.00
23341;BME280;12239;53.404;23.492;2022-08-01T00:05:53;99117.98;;;14.44;100.00
23341;BME280;12239;53.404;23.492;2022-08-01T00:08:20;99119.53;;;14.42;100.00
23341;BME280;12239;53.404;23.492;2022-08-01T00:10:48;99119.04;;;14.39;100.00
23341;BME280;12239;53.404;23.492;2022-08-01T00:13:18;99116.96;;;14.38;100.00
23341;BME280;12239;53.404;23.492;2022-08-01T00:15:45;99122.89;;;14.37;100.00
23341;BME280;12239;53.404;23.492;2022-08-01T00:18:33;99123.65;;;14.37;100.00
23341;BME280;12239;53.404;23.492;2022-08-01T00:21:01;99118.39;;;14.39;100.00
23341;BME280;12239;53.404;23.492;2022-08-01T00:23:31;99119.87;;;14.43;100.00
23341;BME280;12239;53.404;23.492;2022-08-01T00:26:18;99117.67;;;14.42;100.00
23341;BME280;12239;53.404;23.492;2022-08-01T00:28:46;99118.59;;;14.42;100.00
23341;BME280;12239;53.404;23.492;2022-08-01T00:31:13;99117.13;;;14.44;100.00
23341;BME280;12239;53.404;23.492;2022-08-01T00:34:00;99113.58;;;14.44;100.00
23341;BME280;12239;53.404;23.492;2022-08-01T00:36:30;99114.23;;;14.43;100.00
23341;BME280;12239;53.404;23.492;2022-08-01T00:39:17;99114.19;;;14.40;100.00
23341;BME280;12239;53.404;23.492;2022-08-01T00:41:45;99111.61;;;14.35;100.00
23341;BME280;12239;53.404;23.492;2022-08-01T00:44:12;99114.94;;;14.34;100.00
23341;BME280;12239;53.404;23.492;2022-08-01T00:46:45;99108.85;;;14.30;100.00
23341;BME280;12239;53.404;23.492;2022-08-01T00:49:12;99109.63;;;14.28;100.00
23341;BME280;12239;53.404;23.492;2022-08-01T00:51:43;99107.77;;;14.30;100.00
23341;BME280;12239;53.404;23.492;2022-08-01T00:54:30;99111.80;;;14.31;100.00
23341;BME280;12239;53.404;23.492;2022-08-01T00:57:00;99112.39;;;14.28;100.00
23341;BME280;12239;53.404;23.492;2022-08-01T00:59:37;99114.31;;;14.26;100.00
23341;BME280;12239;53.404;23.492;2022-08-01T01:02:08;99110.39;;;14.25;100.00
23341;BME280;12239;53.404;23.492;2022-08-01T01:04:38;99111.01;;;14.25;100.00
23341;BME280;12239;53.404;23.492;2022-08-01T01:07:07;99109.76;;;14.24;100.00
23341;BME280;12239;53.404;23.492;2022-08-01T01:09:59;99112.88;;;14.23;100.00
23341;BME280;12239;53.404;23.492;2022-08-01T01:12:50;99111.45;;;14.24;100.00
23341;BME280;12239;53.404;23.492;2022-08-01T01:15:28;99108.80;;;14.27;100.00
23341;BME280;12239;53.404;23.492;2022-08-01T01:17:59;99108.63;;;14.29;100.00
23341;BME280;12239;53.404;23.492;2022-08-01T01:20:31;99109.43;;;14.27;100.00
23341;BME280;12239;53.404;23.492;2022-08-01T01:23:27;99108.30;;;14.23;100.00
23341;BME280;12239;53.404;23.492;2022-08-01T01:26:28;99108.55;;;14.19;100.00
23341;BME280;12239;53.404;23.492;2022-08-01T01:29:03;99111.95;;;14.21;100.00
23341;BME280;12239;53.404;23.492;2022-08-01T01:31:41;99114.09;;;14.24;100.00
23341;BME280;12239;53.404;23.492;2022-08-01T01:34:12;99112.69;;;14.23;100.00
23341;BME280;12239;53.404;23.492;2022-08-01T01:36:39;99114.95;;;14.16;100.00
23341;BME280;12239;53.404;23.492;2022-08-01T01:39:28;99113.27;;;14.15;100.00
23341;BME280;12239;53.404;23.492;2022-08-01T01:41:57;99110.22;;;14.13;100.00
23341;BME280;12239;53.404;23.492;2022-08-01T01:44:25;99113.60;;;14.12;100.00
23341;BME280;12239;53.404;23.492;2022-08-01T01:46:56;99108.09;;;14.12;100.00
23341;BME280;12239;53.404;23.492;2022-08-01T01:49:27;99108.38;;;14.09;100.00
23341;BME280;12239;53.404;23.492;2022-08-01T01:51:58;99109.10;;;14.12;100.00
23341;BME280;12239;53.404;23.492;2022-08-01T01:54:28;99108.86;;;14.10;100.00
23341;BME280;12239;53.404;23.492;2022-08-01T01:57:00;99111.47;;;14.09;100.00
23341;BME280;12239;53.404;23.492;2022-08-01T01:59:33;99113.10;;;14.06;100.00
23341;BME280;12239;53.404;23.492;2022-08-01T02:02:04;99112.70;;;14.01;100.00
23341;BME280;12239;53.404;23.492;2022-08-01T02:04:36;99116.23;;;13.99;100.00
23341;BME280;12239;53.404;23.492;2022-08-01T02:07:24;99115.10;;;13.96;100.00
23341;BME280;12239;53.404;23.492;2022-08-01T02:09:55;99118.31;;;13.92;100.00
23341;BME280;12239;53.404;23.492;2022-08-01T02:12:33;99117.73;;;13.91;100.00
23341;BME280;12239;53.404;23.492;2022-08-01T02:15:01;99114.45;;;13.90;100.00
23341;BME280;12239;53.404;23.492;2022-08-01T02:17:30;99118.48;;;13.92;100.00
23341;BME280;12239;53.404;23.492;2022-08-01T02:20:00;99114.73;;;13.93;100.00
23341;BME280;12239;53.404;23.492;2022-08-01T02:22:49;99114.61;;;13.97;100.00
23341;BME280;12239;53.404;23.492;2022-08-01T02:25:23;99115.02;;;14.00;100.00
23341;BME280;12239;53.404;23.492;2022-08-01T02:27:57;99115.50;;;14.00;100.00
23341;BME280;12239;53.404;23.492;2022-08-01T02:30:47;99115.45;;;13.97;100.00
23341;BME280;12239;53.404;23.492;2022-08-01T02:33:16;99116.45;;;13.99;100.00
23341;BME280;12239;53.404;23.492;2022-08-01T02:35:54;99115.79;;;14.00;100.00
23341;BME280;12239;53.404;23.492;2022-08-01T02:38:26;99116.42;;;14.00;100.00
23341;BME280;12239;53.404;23.492;2022-08-01T02:40:56;99118.58;;;14.03;100.00
23341;BME280;12239;53.404;23.492;2022-08-01T02:43:45;99115.67;;;14.06;100.00
23341;BME280;12239;53.404;23.492;2022-08-01T02:46:20;99115.63;;;14.09;100.00
23341;BME280;12239;53.404;23.492;2022-08-01T02:48:51;99120.15;;;14.10;100.00
23341;BME280;12239;53.404;23.492;2022-08-01T02:51:19;99123.56;;;14.08;100.00
23341;BME280;12239;53.404;23.492;2022-08-01T02:53:51;99125.10;;;14.04;100.00
23341;BME280;12239;53.404;23.492;2022-08-01T02:56:23;99126.15;;;14.03;100.00
23341;BME280;12239;53.404;23.492;2022-08-01T02:59:21;99127.23;;;14.02;100.00
23341;BME280;12239;53.404;23.492;2022-08-01T03:01:52;99125.30;;;13.98;100.00
23341;BME280;12239;53.404;23.492;2022-08-01T03:04:41;99124.52;;;13.96;100.00
23341;BME280;12239;53.404;23.492;2022-08-01T03:07:28;99123.42;;;13.99;100.00
23341;BME280;12239;53.404;23.492;2022-08-01T03:10:02;99124.73;;;14.01;100.00
23341;BME280;12239;53.404;23.492;2022-08-01T03:12:30;99127.48;;;14.04;100.00
23341;BME280;12239;53.404;23.492;2022-08-01T03:15:00;99128.49;;;14.06;100.00
23341;BME280;12239;53.404;23.492;2022-08-01T03:17:30;99133.95;;;14.07;100.00
23341;BME280;12239;53.404;23.492;2022-08-01T03:20:02;99132.09;;;14.09;100.00
23341;BME280;12239;53.404;23.492;2022-08-01T03:22:31;99138.41;;;14.09;100.00
23341;BME280;12239;53.404;23.492;2022-08-01T03:25:19;99137.86;;;14.04;100.00
23341;BME280;12239;53.404;23.492;2022-08-01T03:27:47;99138.22;;;14.00;100.00
23341;BME280;12239;53.404;23.492;2022-08-01T03:30:37;99143.89;;;13.97;100.00
23341;BME280;12239;53.404;23.492;2022-08-01T03:33:14;99141.98;;;13.93;100.00
23341;BME280;12239;53.404;23.492;2022-08-01T03:35:42;99147.88;;;13.91;100.00
23341;BME280;12239;53.404;23.492;2022-08-01T03:38:33;99150.04;;;13.91;100.00
23341;BME280;12239;53.404;23.492;2022-08-01T03:41:08;99148.28;;;13.95;100.00
23341;BME280;12239;53.404;23.492;2022-08-01T03:43:58;99155.14;;;14.02;100.00
23341;BME280;12239;53.404;23.492;2022-08-01T03:46:28;99160.31;;;14.08;100.00
23341;BME280;12239;53.404;23.492;2022-08-01T03:49:18;99165.42;;;14.10;100.00
23341;BME280;12239;53.404;23.492;2022-08-01T03:52:07;99165.87;;;14.10;100.00
23341;BME280;12239;53.404;23.492;2022-08-01T03:54:56;99167.53;;;14.05;100.00
23341;BME280;12239;53.404;23.492;2022-08-01T03:57:28;99165.88;;;14.04;100.00
23341;BME280;12239;53.404;23.492;2022-08-01T03:59:56;99164.95;;;14.04;100.00
23341;BME280;12239;53.404;23.492;2022-08-01T04:02:44;99166.17;;;14.05;100.00
23341;BME280;12239;53.404;23.492;2022-08-01T04:05:21;99165.44;;;14.07;100.00
23341;BME280;12239;53.404;23.492;2022-08-01T04:08:09;99164.16;;;14.07;100.00
23341;BME280;12239;53.404;23.492;2022-08-01T04:10:39;99169.23;;;14.11;100.00
23341;BME280;12239;53.404;23.492;2022-08-01T04:13:08;99167.61;;;14.14;100.00
23341;BME280;12239;53.404;23.492;2022-08-01T04:15:36;99168.91;;;14.17;100.00
23341;BME280;12239;53.404;23.492;2022-08-01T04:18:23;99172.61;;;14.15;100.00
23341;BME280;12239;53.404;23.492;2022-08-01T04:20:50;99171.88;;;14.09;100.00
23341;BME280;12239;53.404;23.492;2022-08-01T04:23:20;99171.96;;;14.07;100.00
23341;BME280;12239;53.404;23.492;2022-08-01T04:26:10;99168.95;;;14.09;100.00
23341;BME280;12239;53.404;23.492;2022-08-01T04:28:58;99166.20;;;14.11;100.00
23341;BME280;12239;53.404;23.492;2022-08-01T04:31:36;99168.83;;;14.15;100.00
23341;BME280;12239;53.404;23.492;2022-08-01T04:34:09;99169.36;;;14.19;100.00
23341;BME280;12239;53.404;23.492;2022-08-01T04:36:41;99169.35;;;14.24;100.00
23341;BME280;12239;53.404;23.492;2022-08-01T04:39:12;99169.33;;;14.29;100.00
23341;BME280;12239;53.404;23.492;2022-08-01T04:41:40;99167.88;;;14.33;100.00
23341;BME280;12239;53.404;23.492;2022-08-01T04:44:17;99171.10;;;14.41;100.00
23341;BME280;12239;53.404;23.492;2022-08-01T04:46:46;99168.86;;;14.46;100.00
23341;BME280;12239;53.404;23.492;2022-08-01T04:49:17;99170.55;;;14.46;100.00
23341;BME280;12239;53.404;23.492;2022-08-01T04:52:08;99172.69;;;14.49;100.00
23341;BME280;12239;53.404;23.492;2022-08-01T04:54:37;99177.96;;;14.53;100.00
23341;BME280;12239;53.404;23.492;2022-08-01T04:57:04;99173.95;;;14.53;100.00
23341;BME280;12239;53.404;23.492;2022-08-01T04:59:42;99173.79;;;14.49;100.00
23341;BME280;12239;53.404;23.492;2022-08-01T05:02:30;99173.48;;;14.51;100.00
23341;BME280;12239;53.404;23.492;2022-08-01T05:05:17;99174.61;;;14.63;100.00
23341;BME280;12239;53.404;23.492;2022-08-01T05:07:46;99179.73;;;14.70;100.00
23341;BME280;12239;53.404;23.492;2022-08-01T05:10:13;99178.81;;;14.78;100.00
23341;BME280;12239;53.404;23.492;2022-08-01T05:12:40;99181.40;;;14.83;100.00
23341;BME280;12239;53.404;23.492;2022-08-01T05:15:08;99176.69;;;14.84;100.00
23341;BME280;12239;53.404;23.492;2022-08-01T05:17:36;99181.30;;;14.86;100.00
23341;BME280;12239;53.404;23.492;2022-08-01T05:20:04;99184.90;;;14.86;100.00
23341;BME280;12239;53.404;23.492;2022-08-01T05:22:53;99186.11;;;14.90;100.00
23341;BME280;12239;53.404;23.492;2022-08-01T05:25:23;99191.09;;;14.95;100.00
23341;BME280;12239;53.404;23.492;2022-08-01T05:27:51;99193.08;;;15.00;100.00
23341;BME280;12239;53.404;23.492;2022-08-01T05:30:39;99196.97;;;15.05;100.00
23341;BME280;12239;53.404;23.492;2022-08-01T05:33:26;99195.84;;;15.05;100.00
23341;BME280;12239;53.404;23.492;2022-08-01T05:36:14;99194.80;;;15.05;100.00
23341;BME280;12239;53.404;23.492;2022-08-01T05:39:02;99192.84;;;15.11;100.00
23341;BME280;12239;53.404;23.492;2022-08-01T05:41:49;99195.74;;;15.17;100.00
23341;BME280;12239;53.404;23.492;2022-08-01T05:44:19;99197.65;;;15.18;100.00
23341;BME280;12239;53.404;23.492;2022-08-01T05:46:49;99198.52;;;15.15;100.00
23341;BME280;12239;53.404;23.492;2022-08-01T05:49:16;99201.53;;;15.15;100.00
23341;BME280;12239;53.404;23.492;2022-08-01T05:51:44;99198.70;;;15.14;100.00
23341;BME280;12239;53.404;23.492;2022-08-01T05:54:31;99202.83;;;15.14;100.00
23341;BME280;12239;53.404;23.492;2022-08-01T05:57:01;99205.88;;;15.13;100.00
23341;BME280;12239;53.404;23.492;2022-08-01T05:59:49;99205.14;;;15.14;100.00
23341;BME280;12239;53.404;23.492;2022-08-01T06:02:40;99208.95;;;15.09;100.00
23341;BME280;12239;53.404;23.492;2022-08-01T06:05:28;99209.98;;;15.07;100.00
23341;BME280;12239;53.404;23.492;2022-08-01T06:08:04;99212.08;;;15.01;100.00
23341;BME280;12239;53.404;23.492;2022-08-01T06:10:31;99212.20;;;14.98;100.00
23341;BME280;12239;53.404;23.492;2022-08-01T06:12:59;99212.29;;;14.99;100.00
23341;BME280;12239;53.404;23.492;2022-08-01T06:15:46;99213.45;;;15.01;100.00
23341;BME280;12239;53.404;23.492;2022-08-01T06:18:14;99211.80;;;15.08;100.00
23341;BME280;12239;53.404;23.492;2022-08-01T06:21:01;99214.21;;;15.20;100.00
23341;BME280;12239;53.404;23.492;2022-08-01T06:23:49;99208.83;;;15.26;100.00
23341;BME280;12239;53.404;23.492;2022-08-01T06:26:17;99212.30;;;15.21;100.00
23341;BME280;12239;53.404;23.492;2022-08-01T06:28:45;99213.48;;;15.19;100.00
23341;BME280;12239;53.404;23.492;2022-08-01T06:31:32;99215.95;;;15.13;100.00
23341;BME280;12239;53.404;23.492;2022-08-01T06:34:20;99217.22;;;15.08;100.00
23341;BME280;12239;53.404;23.492;2022-08-01T06:36:48;99217.27;;;15.08;100.00
23341;BME280;12239;53.404;23.492;2022-08-01T06:39:36;99216.98;;;15.10;100.00
23341;BME280;12239;53.404;23.492;2022-08-01T06:42:23;99217.20;;;15.10;100.00
23341;BME280;12239;53.404;23.492;2022-08-01T06:44:51;99221.82;;;15.17;100.00
23341;BME280;12239;53.404;23.492;2022-08-01T06:47:18;99218.87;;;15.19;100.00
23341;BME280;12239;53.404;23.492;2022-08-01T06:50:07;99219.02;;;15.22;100.00
23341;BME280;12239;53.404;23.492;2022-08-01T06:52:55;99220.87;;;15.20;100.00
23341;BME280;12239;53.404;23.492;2022-08-01T06:55:25;99224.14;;;15.23;100.00
23341;BME280;12239;53.404;23.492;2022-08-01T06:58:13;99223.27;;;15.24;100.00
23341;BME280;12239;53.404;23.492;2022-08-01T07:00:42;99225.81;;;15.26;100.00
23341;BME280;12239;53.404;23.492;2022-08-01T07:03:10;99230.84;;;15.28;100.00
23341;BME280;12239;53.404;23.492;2022-08-01T07:05:39;99228.95;;;15.25;100.00
23341;BME280;12239;53.404;23.492;2022-08-01T07:08:27;99233.48;;;15.22;100.00
23341;BME280;12239;53.404;23.492;2022-08-01T07:10:54;99235.27;;;15.28;100.00
23341;BME280;12239;53.404;23.492;2022-08-01T07:13:25;99235.23;;;15.30;100.00
23341;BME280;12239;53.404;23.492;2022-08-01T07:15:55;99236.66;;;15.29;100.00
23341;BME280;12239;53.404;23.492;2022-08-01T07:18:24;99237.02;;;15.28;100.00
23341;BME280;12239;53.404;23.492;2022-08-01T07:21:12;99236.64;;;15.22;100.00
23341;BME280;12239;53.404;23.492;2022-08-01T07:23:44;99239.76;;;15.20;100.00
23341;BME280;12239;53.404;23.492;2022-08-01T07:26:32;99246.06;;;15.19;100.00
23341;BME280;12239;53.404;23.492;2022-08-01T07:28:59;99247.84;;;15.19;100.00
23341;BME280;12239;53.404;23.492;2022-08-01T07:31:29;99249.23;;;15.21;100.00
23341;BME280;12239;53.404;23.492;2022-08-01T07:33:56;99248.02;;;15.18;100.00
23341;BME280;12239;53.404;23.492;2022-08-01T07:36:33;99254.63;;;15.13;100.00
23341;BME280;12239;53.404;23.492;2022-08-01T07:39:02;99256.60;;;15.15;100.00
23341;BME280;12239;53.404;23.492;2022-08-01T07:41:29;99258.00;;;15.16;100.00
23341;BME280;12239;53.404;23.492;2022-08-01T07:43:57;99257.91;;;15.18;100.00
23341;BME280;12239;53.404;23.492;2022-08-01T07:46:24;99255.15;;;15.18;100.00
23341;BME280;12239;53.404;23.492;2022-08-01T07:48:52;99255.39;;;15.20;100.00
23341;BME280;12239;53.404;23.492;2022-08-01T07:51:19;99253.70;;;15.22;100.00
23341;BME280;12239;53.404;23.492;2022-08-01T07:53:49;99254.66;;;15.23;100.00
23341;BME280;12239;53.404;23.492;2022-08-01T07:56:16;99254.40;;;15.22;100.00
23341;BME280;12239;53.404;23.492;2022-08-01T07:58:43;99256.06;;;15.21;100.00
23341;BME280;12239;53.404;23.492;2022-08-01T08:01:32;99255.39;;;15.28;100.00
23341;BME280;12239;53.404;23.492;2022-08-01T08:04:19;99256.73;;;15.39;100.00
23341;BME280;12239;53.404;23.492;2022-08-01T08:06:47;99262.84;;;15.49;100.00
23341;BME280;12239;53.404;23.492;2022-08-01T08:09:35;99263.91;;;15.63;100.00
23341;BME280;12239;53.404;23.492;2022-08-01T08:12:06;99261.27;;;15.73;100.00
23341;BME280;12239;53.404;23.492;2022-08-01T08:14:33;99259.33;;;15.75;100.00
23341;BME280;12239;53.404;23.492;2022-08-01T08:17:10;99258.48;;;15.79;100.00
23341;BME280;12239;53.404;23.492;2022-08-01T08:19:37;99258.38;;;15.82;100.00
23341;BME280;12239;53.404;23.492;2022-08-01T08:22:25;99258.44;;;15.86;100.00
23341;BME280;12239;53.404;23.492;2022-08-01T08:25:05;99260.90;;;15.94;100.00
23341;BME280;12239;53.404;23.492;2022-08-01T08:27:32;99259.06;;;15.97;100.00
23341;BME280;12239;53.404;23.492;2022-08-01T08:30:02;99260.73;;;16.00;100.00
23341;BME280;12239;53.404;23.492;2022-08-01T08:32:35;99261.89;;;16.04;100.00
23341;BME280;12239;53.404;23.492;2022-08-01T08:35:03;99261.98;;;16.13;100.00
23341;BME280;12239;53.404;23.492;2022-08-01T08:37:34;99263.64;;;16.23;100.00
23341;BME280;12239;53.404;23.492;2022-08-01T08:40:06;99262.89;;;16.42;100.00
23341;BME280;12239;53.404;23.492;2022-08-01T08:42:33;99258.16;;;16.55;100.00
23341;BME280;12239;53.404;23.492;2022-08-01T08:45:01;99262.77;;;16.59;100.00
23341;BME280;12239;53.404;23.492;2022-08-01T08:47:28;99266.08;;;16.67;100.00
23341;BME280;12239;53.404;23.492;2022-08-01T08:49:58;99268.16;;;16.67;100.00
23341;BME280;12239;53.404;23.492;2022-08-01T08:52:35;99270.02;;;16.67;100.00
23341;BME280;12239;53.404;23.492;2022-08-01T08:55:06;99269.50;;;16.72;100.00
23341;BME280;12239;53.404;23.492;2022-08-01T08:57:54;99274.52;;;16.85;100.00
23341;BME280;12239;53.404;23.492;2022-08-01T09:00:22;99274.17;;;16.98;100.00
23341;BME280;12239;53.404;23.492;2022-08-01T09:02:49;99273.73;;;17.16;100.00
23341;BME280;12239;53.404;23.492;2022-08-01T09:05:38;99273.95;;;17.35;100.00
23341;BME280;12239;53.404;23.492;2022-08-01T09:08:26;99275.90;;;17.54;100.00
23341;BME280;12239;53.404;23.492;2022-08-01T09:11:14;99277.48;;;17.73;100.00
23341;BME280;12239;53.404;23.492;2022-08-01T09:14:02;99285.38;;;17.85;100.00
23341;BME280;12239;53.404;23.492;2022-08-01T09:16:32;99288.34;;;17.88;100.00
23341;BME280;12239;53.404;23.492;2022-08-01T09:19:20;99291.23;;;17.84;100.00
23341;BME280;12239;53.404;23.492;2022-08-01T09:21:56;99295.28;;;17.87;100.00
23341;BME280;12239;53.404;23.492;2022-08-01T09:24:30;99297.88;;;17.94;100.00
23341;BME280;12239;53.404;23.492;2022-08-01T09:26:57;99299.87;;;18.04;100.00
23341;BME280;12239;53.404;23.492;2022-08-01T09:29:26;99297.60;;;18.09;100.00
23341;BME280;12239;53.404;23.492;2022-08-01T09:32:14;99297.89;;;18.06;100.00
23341;BME280;12239;53.404;23.492;2022-08-01T09:34:42;99301.22;;;18.00;100.00
23341;BME280;12239;53.404;23.492;2022-08-01T09:37:09;99302.41;;;17.95;100.00
23341;BME280;12239;53.404;23.492;2022-08-01T09:39:37;99303.66;;;17.98;100.00
23341;BME280;12239;53.404;23.492;2022-08-01T09:42:22;99303.43;;;17.98;100.00
23341;BME280;12239;53.404;23.492;2022-08-01T09:44:49;99312.11;;;17.95;100.00
23341;BME280;12239;53.404;23.492;2022-08-01T09:47:17;99308.48;;;17.92;100.00
23341;BME280;12239;53.404;23.492;2022-08-01T09:49:53;99314.17;;;17.99;100.00
23341;BME280;12239;53.404;23.492;2022-08-01T09:52:21;99313.30;;;18.07;100.00
23341;BME280;12239;53.404;23.492;2022-08-01T09:54:52;99316.98;;;18.15;100.00
23341;BME280;12239;53.404;23.492;2022-08-01T09:57:20;99313.46;;;18.29;100.00
23341;BME280;12239;53.404;23.492;2022-08-01T09:59:48;99316.84;;;18.30;100.00
23341;BME280;12239;53.404;23.492;2022-08-01T10:02:27;99324.82;;;18.18;100.00
23341;BME280;12239;53.404;23.492;2022-08-01T10:04:54;99325.91;;;18.09;100.00
23341;BME280;12239;53.404;23.492;2022-08-01T10:10:36;99330.70;;;18.08;100.00
23341;BME280;12239;53.404;23.492;2022-08-01T10:13:05;99328.89;;;18.07;100.00
23341;BME280;12239;53.404;23.492;2022-08-01T10:15:33;99332.67;;;18.07;100.00
23341;BME280;12239;53.404;23.492;2022-08-01T10:18:20;99334.16;;;18.04;100.00
23341;BME280;12239;53.404;23.492;2022-08-01T10:20:51;99334.95;;;17.99;100.00
23341;BME280;12239;53.404;23.492;2022-08-01T10:23:21;99336.86;;;17.95;100.00
23341;BME280;12239;53.404;23.492;2022-08-01T10:26:01;99343.48;;;17.89;100.00
23341;BME280;12239;53.404;23.492;2022-08-01T10:28:34;99344.73;;;17.87;100.00
23341;BME280;12239;53.404;23.492;2022-08-01T10:31:01;99343.34;;;17.82;100.00
23341;BME280;12239;53.404;23.492;2022-08-01T10:33:49;99347.73;;;17.77;100.00
23341;BME280;12239;53.404;23.492;2022-08-01T10:36:17;99350.66;;;17.77;100.00
23341;BME280;12239;53.404;23.492;2022-08-01T10:38:54;99350.17;;;17.81;100.00
23341;BME280;12239;53.404;23.492;2022-08-01T10:41:25;99356.67;;;17.93;100.00
23341;BME280;12239;53.404;23.492;2022-08-01T10:43:53;99357.61;;;18.06;100.00
23341;BME280;12239;53.404;23.492;2022-08-01T10:46:20;99356.85;;;18.11;100.00
23341;BME280;12239;53.404;23.492;2022-08-01T10:49:09;99358.45;;;18.19;100.00
23341;BME280;12239;53.404;23.492;2022-08-01T10:51:57;99357.77;;;18.33;100.00
23341;BME280;12239;53.404;23.492;2022-08-01T10:54:25;99359.38;;;18.43;100.00
23341;BME280;12239;53.404;23.492;2022-08-01T10:56:52;99357.50;;;18.52;100.00
23341;BME280;12239;53.404;23.492;2022-08-01T10:59:20;99354.51;;;18.53;100.00
23341;BME280;12239;53.404;23.492;2022-08-01T11:01:56;99359.44;;;18.54;100.00
23341;BME280;12239;53.404;23.492;2022-08-01T11:04:32;99362.10;;;18.49;100.00
23341;BME280;12239;53.404;23.492;2022-08-01T11:07:04;99360.52;;;18.42;100.00
23341;BME280;12239;53.404;23.492;2022-08-01T11:09:41;99366.57;;;18.37;100.00
23341;BME280;12239;53.404;23.492;2022-08-01T11:12:11;99362.97;;;18.33;100.00
23341;BME280;12239;53.404;23.492;2022-08-01T11:17:37;99365.21;;;18.19;100.00
23341;BME280;12239;53.404;23.492;2022-08-01T11:20:08;99368.43;;;18.09;100.00
23341;BME280;12239;53.404;23.492;2022-08-01T11:28:20;99371.89;;;18.10;100.00
23341;BME280;12239;53.404;23.492;2022-08-01T11:30:50;99369.73;;;18.21;100.00
23341;BME280;12239;53.404;23.492;2022-08-01T11:33:18;99368.27;;;18.28;100.00
23341;BME280;12239;53.404;23.492;2022-08-01T11:38:31;99371.52;;;18.43;100.00
23341;BME280;12239;53.404;23.492;2022-08-01T11:41:09;99371.16;;;18.36;100.00
23341;BME280;12239;53.404;23.492;2022-08-01T11:43:41;99374.94;;;18.27;100.00
23341;BME280;12239;53.404;23.492;2022-08-01T11:49:33;99384.91;;;18.14;100.00
23341;BME280;12239;53.404;23.492;2022-08-01T11:52:26;99383.38;;;18.15;100.00
23341;BME280;12239;53.404;23.492;2022-08-01T11:54:54;99390.90;;;18.17;100.00
23341;BME280;12239;53.404;23.492;2022-08-01T11:57:25;99391.39;;;18.18;100.00
23341;BME280;12239;53.404;23.492;2022-08-01T11:59:53;99389.26;;;18.22;100.00
23341;BME280;12239;53.404;23.492;2022-08-01T12:02:41;99393.70;;;18.25;100.00
23341;BME280;12239;53.404;23.492;2022-08-01T12:05:09;99392.70;;;18.33;100.00
23341;BME280;12239;53.404;23.492;2022-08-01T12:07:39;99394.30;;;18.49;100.00
23341;BME280;12239;53.404;23.492;2022-08-01T12:10:07;99395.83;;;18.67;100.00
23341;BME280;12239;53.404;23.492;2022-08-01T12:12:42;99392.32;;;18.87;100.00
23341;BME280;12239;53.404;23.492;2022-08-01T12:15:10;99388.45;;;19.05;99.94
23341;BME280;12239;53.404;23.492;2022-08-01T12:17:38;99385.98;;;19.08;100.00
23341;BME280;12239;53.404;23.492;2022-08-01T12:20:10;99391.65;;;19.11;99.44
23341;BME280;12239;53.404;23.492;2022-08-01T12:22:37;99392.38;;;19.12;99.74
23341;BME280;12239;53.404;23.492;2022-08-01T12:25:25;99389.20;;;19.22;100.00
23341;BME280;12239;53.404;23.492;2022-08-01T12:28:01;99389.45;;;19.39;99.60
23341;BME280;12239;53.404;23.492;2022-08-01T12:30:32;99383.88;;;19.54;97.54
23341;BME280;12239;53.404;23.492;2022-08-01T12:33:05;99385.67;;;19.70;96.53
23341;BME280;12239;53.404;23.492;2022-08-01T12:35:53;99385.92;;;19.83;94.22
23341;BME280;12239;53.404;23.492;2022-08-01T12:38:21;99387.79;;;19.83;92.35
23341;BME280;12239;53.404;23.492;2022-08-01T12:40:49;99385.39;;;19.83;93.10
23341;BME280;12239;53.404;23.492;2022-08-01T12:43:17;99390.89;;;19.79;93.43
23341;BME280;12239;53.404;23.492;2022-08-01T12:45:45;99391.93;;;19.80;94.10
23341;BME280;12239;53.404;23.492;2022-08-01T12:48:16;99394.48;;;19.83;93.31
23341;BME280;12239;53.404;23.492;2022-08-01T12:50:44;99389.70;;;19.81;92.77
23341;BME280;12239;53.404;23.492;2022-08-01T12:53:14;99395.72;;;19.79;93.05
23341;BME280;12239;53.404;23.492;2022-08-01T12:55:45;99392.41;;;19.75;92.43
23341;BME280;12239;53.404;23.492;2022-08-01T12:58:15;99392.17;;;19.78;93.50
23341;BME280;12239;53.404;23.492;2022-08-01T13:00:46;99392.86;;;19.80;93.46
23341;BME280;12239;53.404;23.492;2022-08-01T13:03:15;99394.24;;;19.92;92.88
23341;BME280;12239;53.404;23.492;2022-08-01T13:05:44;99391.69;;;20.08;92.62
23341;BME280;12239;53.404;23.492;2022-08-01T13:08:19;99390.54;;;20.20;91.76
23341;BME280;12239;53.404;23.492;2022-08-01T13:10:46;99388.21;;;20.28;89.69
23341;BME280;12239;53.404;23.492;2022-08-01T13:13:15;99391.34;;;20.32;90.41
23341;BME280;12239;53.404;23.492;2022-08-01T13:15:43;99386.29;;;20.37;90.66
23341;BME280;12239;53.404;23.492;2022-08-01T13:18:23;99389.00;;;20.44;89.93
23341;BME280;12239;53.404;23.492;2022-08-01T13:21:10;99387.09;;;20.41;90.87
23341;BME280;12239;53.404;23.492;2022-08-01T13:23:38;99391.34;;;20.32;90.68
23341;BME280;12239;53.404;23.492;2022-08-01T13:26:05;99390.16;;;20.13;90.03
23341;BME280;12239;53.404;23.492;2022-08-01T13:28:35;99391.41;;;19.95;91.31
23341;BME280;12239;53.404;23.492;2022-08-01T13:31:04;99392.79;;;19.87;91.75
23341;BME280;12239;53.404;23.492;2022-08-01T13:33:40;99388.02;;;19.74;92.31
23341;BME280;12239;53.404;23.492;2022-08-01T13:36:08;99390.23;;;19.75;93.42